createdAt,value
2022-09-27T00:02:41.339Z,95558.91
2022-09-27T00:07:44.205Z,95559.09
2022-09-27T00:12:45.759Z,95556.50
2022-09-27T00:17:51.727Z,95548.09
2022-09-27T00:22:53.370Z,95547.94
2022-09-27T00:27:55.047Z,95535.97
2022-09-27T00:32:56.836Z,95516.94
2022-09-27T00:37:58.413Z,95520.31
2022-09-27T00:43:00.121Z,95518.88
2022-09-27T00:48:05.315Z,95517.25
2022-09-27T00:53:13.758Z,95510.47
2022-09-27T00:58:18.553Z,95506.59
2022-09-27T01:03:28.360Z,95509.03
2022-09-27T01:08:30.187Z,95506.94
2022-09-27T01:13:43.672Z,95505.97
2022-09-27T01:18:55.378Z,95501.72
2022-09-27T01:30:53.846Z,95483.47
2022-09-27T01:36:20.459Z,95474.13
2022-09-27T01:41:34.459Z,95468.47
2022-09-27T01:47:05.615Z,95457.47
2022-09-27T01:52:27.646Z,95457.00
2022-09-27T01:57:35.419Z,95442.16
2022-09-27T02:02:51.599Z,95451.34
2022-09-27T02:08:49.607Z,95444.91
2022-09-27T02:14:06.005Z,95470.72
2022-09-27T02:19:25.668Z,95459.25
2022-09-27T02:24:39.445Z,95447.00
2022-09-27T02:29:58.620Z,95436.16
2022-09-27T02:35:07.320Z,95427.47
2022-09-27T02:40:10.077Z,95418.09
2022-09-27T02:45:14.264Z,95417.47
2022-09-27T02:50:37.346Z,95405.19
2022-09-27T02:56:27.194Z,95405.19
2022-09-27T03:02:13.577Z,95404.22
2022-09-27T03:07:35.519Z,95394.53
2022-09-27T03:12:37.271Z,95398.72
2022-09-27T03:17:38.948Z,95386.31
2022-09-27T03:22:59.350Z,95393.72
2022-09-27T03:28:01.180Z,95380.66
2022-09-27T03:33:04.409Z,95387.59
2022-09-27T03:38:09.285Z,95387.59
2022-09-27T03:43:11.323Z,95381.47
2022-09-27T03:48:13.085Z,95368.53
2022-09-27T03:53:14.723Z,95368.06
2022-09-27T03:58:16.700Z,95370.16
2022-09-27T04:03:19.577Z,95362.72
2022-09-27T04:08:39.994Z,95362.59
2022-09-27T04:13:43.049Z,95359.03
2022-09-27T04:18:45.094Z,95368.72
2022-09-27T04:23:49.626Z,95367.44
2022-09-27T04:28:55.085Z,95360.31
2022-09-27T04:33:58.818Z,95351.31
2022-09-27T04:39:05.954Z,95364.84
2022-09-27T04:44:11.636Z,95357.25
2022-09-27T04:49:17.745Z,95367.56
2022-09-27T04:54:20.086Z,95373.38
2022-09-27T04:59:31.179Z,95380.19
2022-09-27T05:04:33.034Z,95377.91
2022-09-27T05:09:35.889Z,95382.88
2022-09-27T05:14:37.854Z,95388.72
2022-09-27T05:19:58.046Z,95394.84
2022-09-27T05:25:16.659Z,95425.50
2022-09-27T05:30:18.891Z,95446.13
2022-09-27T05:35:27.483Z,95445.97
2022-09-27T05:40:46.292Z,95438.78
2022-09-27T05:45:48.345Z,95442.44
2022-09-27T05:50:52.790Z,95446.88
2022-09-27T05:55:54.664Z,95453.81
2022-09-27T06:01:08.004Z,95475.09
2022-09-27T06:06:28.064Z,95474.56
2022-09-27T06:11:32.516Z,95484.88
2022-09-27T06:16:34.765Z,95491.78
2022-09-27T06:21:37.517Z,95498.44
2022-09-27T06:26:39.702Z,95492.50
2022-09-27T06:32:01.177Z,95508.94
2022-09-27T06:37:26.388Z,95510.69
2022-09-27T06:42:29.154Z,95513.16
2022-09-27T06:47:41.179Z,95513.06
2022-09-27T06:53:00.254Z,95528.22
2022-09-27T06:58:21.012Z,95523.59
2022-09-27T07:03:44.219Z,95522.47
2022-09-27T07:08:54.370Z,95520.09
2022-09-27T07:13:57.950Z,95522.34
2022-09-27T07:19:00.526Z,95518.66
2022-09-27T07:24:02.476Z,95531.78
2022-09-27T07:29:04.229Z,95534.00
2022-09-27T07:34:06.740Z,95543.81
2022-09-27T07:39:09.771Z,95545.09
2022-09-27T07:44:11.875Z,95555.78
2022-09-27T07:49:25.894Z,95550.66
2022-09-27T07:54:50.092Z,95560.53
2022-09-27T08:00:01.258Z,95563.94
2022-09-27T08:05:04.444Z,95568.44
2022-09-27T08:10:08.187Z,95566.25
2022-09-27T08:15:11.237Z,95574.19
2022-09-27T08:20:13.441Z,95588.84
2022-09-27T08:25:38.087Z,95599.09
2022-09-27T08:31:01.586Z,95604.09
2022-09-27T08:36:03.522Z,95628.91
2022-09-27T08:41:20.701Z,95616.13
2022-09-27T08:46:40.697Z,95628.28
2022-09-27T08:51:44.686Z,95642.56
2022-09-27T08:56:49.243Z,95649.47
2022-09-27T09:01:54.702Z,95653.59
2022-09-27T09:07:35.017Z,95657.63
2022-09-27T09:12:51.322Z,95655.59
2022-09-27T09:18:20.033Z,95654.84
2022-09-27T09:23:38.738Z,95673.81
2022-09-27T09:29:24.209Z,95687.13
2022-09-27T09:34:42.402Z,95673.53
2022-09-27T09:39:50.524Z,95669.78
2022-09-27T09:45:16.125Z,95666.81
2022-09-27T09:50:22.933Z,95672.56
2022-09-27T09:55:31.489Z,95673.19
2022-09-27T10:00:33.120Z,95679.13
2022-09-27T10:05:36.574Z,95683.38
2022-09-27T10:10:42.713Z,95699.56
2022-09-27T10:16:11.004Z,95690.38
2022-09-27T10:21:25.644Z,95682.63
2022-09-27T10:26:28.027Z,95682.66
2022-09-27T10:31:37.151Z,95685.69
2022-09-27T10:37:01.089Z,95699.81
2022-09-27T10:42:03.077Z,95713.03
2022-09-27T10:47:22.793Z,95728.31
2022-09-27T10:53:23.529Z,95717.03
2022-09-27T10:58:38.421Z,95703.50
2022-09-27T11:04:16.431Z,95707.25
2022-09-27T11:09:26.209Z,95707.34
2022-09-27T11:14:32.097Z,95705.78
2022-09-27T11:19:47.379Z,95706.31
2022-09-27T11:25:17.429Z,95686.34
2022-09-27T11:30:21.698Z,95677.97
2022-09-27T11:36:13.789Z,95673.53
2022-09-27T11:41:40.837Z,95676.81
2022-09-27T11:46:57.586Z,95664.03
2022-09-27T11:52:27.984Z,95675.19
2022-09-27T11:57:44.664Z,95732.84
2022-09-27T12:03:08.890Z,95736.31
2022-09-27T12:08:30.016Z,95726.22
2022-09-27T12:13:39.794Z,95692.56
2022-09-27T12:18:45.837Z,95683.66
2022-09-27T12:24:04.940Z,95687.13
2022-09-27T12:29:19.304Z,95693.06
2022-09-27T12:34:49.436Z,95680.72
2022-09-27T12:40:01.602Z,95676.38
2022-09-27T12:45:14.950Z,95668.56
2022-09-27T12:50:43.831Z,95666.63
2022-09-27T12:56:26.875Z,95668.19
2022-09-27T13:01:55.300Z,95675.44
2022-09-27T13:07:00.199Z,95675.06
2022-09-27T13:12:20.594Z,95677.38
2022-09-27T13:17:40.946Z,95658.41
2022-09-27T13:22:46.096Z,95660.84
2022-09-27T13:28:38.440Z,95656.75
2022-09-27T13:33:53.581Z,95661.41
2022-09-27T13:39:04.514Z,95637.59
2022-09-27T13:44:14.135Z,95619.66
2022-09-27T13:49:37.154Z,95623.06
2022-09-27T13:54:57.658Z,95623.19
2022-09-27T14:00:08.908Z,95618.19
2022-09-27T14:05:35.573Z,95632.31
2022-09-27T14:10:43.812Z,95623.09
2022-09-27T14:15:47.411Z,95622.47
2022-09-27T14:20:52.620Z,95616.94
2022-09-27T14:26:42.661Z,95619.94
2022-09-27T14:31:44.802Z,95605.72
2022-09-27T14:37:10.303Z,95607.69
2022-09-27T14:42:26.389Z,95595.25
2022-09-27T14:47:29.409Z,95595.69
2022-09-27T14:52:34.944Z,95600.25
2022-09-27T14:57:37.314Z,95598.00
2022-09-27T15:02:41.570Z,95598.94
2022-09-27T15:07:45.834Z,95614.03
2022-09-27T15:12:57.703Z,95694.69
2022-09-27T15:18:00.829Z,95721.22
2022-09-27T15:23:04.602Z,95737.41
2022-09-27T15:28:19.170Z,95715.50
2022-09-27T15:33:31.654Z,95700.09
2022-09-27T15:38:48.970Z,95706.38
2022-09-27T15:43:52.748Z,95724.84
2022-09-27T15:49:33.561Z,95719.16
2022-09-27T15:54:36.358Z,95723.19
2022-09-27T15:59:39.037Z,95714.03
2022-09-27T16:04:40.745Z,95728.56
2022-09-27T16:09:43.557Z,95723.09
2022-09-27T16:14:45.169Z,95712.13
2022-09-27T16:19:46.772Z,95723.09
2022-09-27T16:24:49.841Z,95725.69
2022-09-27T16:29:51.811Z,95731.03
2022-09-27T16:34:53.507Z,95733.06
2022-09-27T16:39:55.218Z,95732.78
2022-09-27T16:44:56.783Z,95727.41
2022-09-27T16:50:17.036Z,95722.34
2022-09-27T16:55:20.897Z,95710.88
2022-09-27T17:00:22.573Z,95706.94
2022-09-27T17:05:24.862Z,95724.84
2022-09-27T17:10:27.397Z,95719.84
2022-09-27T17:15:29.497Z,95729.09
2022-09-27T17:20:31.117Z,95712.56
2022-09-27T17:25:32.785Z,95707.59
2022-09-27T17:30:35.030Z,95701.13
2022-09-27T17:35:38.307Z,95692.59
2022-09-27T17:40:40.932Z,95702.94
2022-09-27T17:45:42.642Z,95709.81
2022-09-27T17:50:46.649Z,95717.72
2022-09-27T17:55:48.336Z,95718.63
2022-09-27T18:00:49.984Z,95719.84
2022-09-27T18:05:51.787Z,95726.44
2022-09-27T18:10:53.589Z,95734.44
2022-09-27T18:15:59.152Z,95731.41
2022-09-27T18:21:03.455Z,95734.13
2022-09-27T18:26:08.734Z,95741.34
2022-09-27T18:31:18.993Z,95739.13
2022-09-27T18:36:23.541Z,95751.13
2022-09-27T18:41:27.162Z,95746.25
2022-09-27T18:46:35.554Z,95763.59
2022-09-27T18:51:43.502Z,95758.31
2022-09-27T18:56:46.086Z,95765.09
2022-09-27T19:01:48.094Z,95776.28
2022-09-27T19:06:50.373Z,95772.81
2022-09-27T19:11:51.992Z,95772.41
2022-09-27T19:16:53.868Z,95782.75
2022-09-27T19:21:55.562Z,95776.69
2022-09-27T19:26:57.269Z,95781.84
2022-09-27T19:31:58.888Z,95787.13
2022-09-27T19:37:00.539Z,95785.72
2022-09-27T19:42:02.489Z,95797.16
2022-09-27T19:47:04.251Z,95793.09
2022-09-27T19:52:05.993Z,95798.41
2022-09-27T19:57:07.633Z,95787.22
2022-09-27T20:02:10.018Z,95782.28
2022-09-27T20:07:11.789Z,95794.53
2022-09-27T20:12:13.561Z,95793.59
2022-09-27T20:17:15.154Z,95796.03
2022-09-27T20:22:17.067Z,95810.09
2022-09-27T20:27:20.231Z,95805.63
2022-09-27T20:32:27.748Z,95809.34
2022-09-27T20:37:30.980Z,95812.69
2022-09-27T20:42:32.634Z,95810.03
2022-09-27T20:47:34.234Z,95804.88
2022-09-27T20:52:35.870Z,95802.25
2022-09-27T20:57:56.427Z,95791.25
2022-09-27T21:02:58.844Z,95783.53
2022-09-27T21:08:00.730Z,95786.19
2022-09-27T21:13:02.798Z,95782.84
2022-09-27T21:18:04.463Z,95780.13
2022-09-27T21:23:06.138Z,95789.88
2022-09-27T21:28:07.825Z,95791.41
2022-09-27T21:33:09.488Z,95797.53
2022-09-27T21:38:11.150Z,95795.81
2022-09-27T21:43:12.783Z,95796.34
2022-09-27T21:48:14.449Z,95795.50
2022-09-27T21:53:16.176Z,95790.44
2022-09-27T21:58:18.014Z,95786.56
2022-09-27T22:03:20.425Z,95774.59
2022-09-27T22:08:22.030Z,95775.81
2022-09-27T22:13:24.209Z,95781.81
2022-09-27T22:18:25.803Z,95774.56
2022-09-27T22:23:27.472Z,95771.19
2022-09-27T22:28:29.263Z,95776.53
2022-09-27T22:33:31.080Z,95772.19
2022-09-27T22:38:33.368Z,95758.16
2022-09-27T22:43:35.053Z,95758.38
2022-09-27T22:48:37.252Z,95755.28
2022-09-27T22:53:39.078Z,95758.75
2022-09-27T22:58:42.983Z,95759.88
2022-09-27T23:03:45.846Z,95753.88
2022-09-27T23:08:47.882Z,95735.78
2022-09-27T23:13:50.875Z,95743.75
2022-09-27T23:18:56.829Z,95744.81
2022-09-27T23:23:59.754Z,95734.00
2022-09-27T23:29:02.537Z,95731.06
2022-09-27T23:34:04.826Z,95729.19
2022-09-27T23:39:06.445Z,95729.31
2022-09-27T23:44:08.079Z,95717.34
2022-09-27T23:49:09.832Z,95714.75
2022-09-27T23:54:12.580Z,95701.78
2022-09-27T23:59:14.941Z,95694.75
